createdAt,value
2023-04-28T00:01:46.945Z,9.57
2023-04-28T00:04:14.483Z,9.73
2023-04-28T00:06:41.786Z,9.15
2023-04-28T00:09:12.243Z,9.90
2023-04-28T00:11:39.313Z,10.38
2023-04-28T00:14:06.426Z,10.63
2023-04-28T00:16:33.481Z,10.63
2023-04-28T00:19:00.478Z,10.30
2023-04-28T00:21:28.938Z,11.70
2023-04-28T00:23:56.093Z,9.77
2023-04-28T00:26:23.079Z,10.82
2023-04-28T00:28:50.232Z,10.82
2023-04-28T00:31:17.457Z,10.32
2023-04-28T00:33:44.869Z,10.68
2023-04-28T00:36:13.046Z,10.95
2023-04-28T00:38:40.039Z,11.27
2023-04-28T00:41:09.610Z,10.88
2023-04-28T00:43:47.384Z,10.45
2023-04-28T00:46:30.257Z,10.98
2023-04-28T00:49:00.927Z,11.15
2023-04-28T00:51:31.028Z,10.60
2023-04-28T00:53:58.096Z,11.55
2023-04-28T00:56:27.781Z,11.77
2023-04-28T00:58:54.704Z,11.00
2023-04-28T01:01:21.741Z,11.68
2023-04-28T01:03:49.551Z,11.07
2023-04-28T01:06:17.477Z,11.30
2023-04-28T01:08:50.397Z,12.13
2023-04-28T01:11:17.717Z,12.10
2023-04-28T01:13:44.694Z,12.68
2023-04-28T01:16:11.867Z,12.80
2023-04-28T01:18:43.239Z,12.60
2023-04-28T01:21:10.130Z,12.27
2023-04-28T01:23:37.169Z,12.38
2023-04-28T01:26:04.108Z,12.65
2023-04-28T01:28:31.847Z,11.70
2023-04-28T01:30:58.793Z,12.80
2023-04-28T01:33:25.765Z,12.73
2023-04-28T01:35:57.826Z,12.75
2023-04-28T01:38:24.800Z,12.93
2023-04-28T01:40:55.734Z,13.10
2023-04-28T01:43:22.669Z,12.98
2023-04-28T01:45:49.774Z,13.25
2023-04-28T01:48:17.203Z,13.55
2023-04-28T01:50:47.400Z,13.18
2023-04-28T01:53:14.720Z,13.18
2023-04-28T01:55:41.708Z,13.10
2023-04-28T01:58:11.211Z,13.68
2023-04-28T02:00:38.112Z,13.75
2023-04-28T02:03:05.494Z,12.73
2023-04-28T02:05:32.474Z,12.30
2023-04-28T02:07:59.543Z,12.52
2023-04-28T02:10:26.539Z,12.98
2023-04-28T02:12:53.423Z,13.13
2023-04-28T02:15:22.577Z,12.88
2023-04-28T02:17:49.949Z,13.05
2023-04-28T02:20:17.026Z,12.32
2023-04-28T02:22:44.000Z,12.10
2023-04-28T02:25:11.045Z,12.88
2023-04-28T02:27:40.859Z,11.77
2023-04-28T02:30:09.011Z,12.55
2023-04-28T02:32:35.938Z,12.80
2023-04-28T02:35:02.896Z,12.60
2023-04-28T02:37:29.855Z,12.57
2023-04-28T02:39:57.057Z,12.48
2023-04-28T02:42:24.008Z,12.93
2023-04-28T02:44:51.272Z,12.65
2023-04-28T02:47:18.369Z,12.40
2023-04-28T02:49:45.345Z,11.63
2023-04-28T02:52:12.744Z,12.00
2023-04-28T02:54:39.827Z,12.20
2023-04-28T02:57:09.686Z,12.15
2023-04-28T02:59:36.762Z,12.70
2023-04-28T03:02:05.100Z,11.68
2023-04-28T03:04:32.679Z,12.25
2023-04-28T03:06:59.804Z,12.23
2023-04-28T03:09:26.823Z,11.77
2023-04-28T03:11:53.853Z,12.00
2023-04-28T03:14:21.002Z,12.18
2023-04-28T03:16:51.302Z,11.70
2023-04-28T03:19:18.339Z,11.27
2023-04-28T03:21:45.487Z,11.45
2023-04-28T03:24:12.487Z,11.63
2023-04-28T03:26:39.482Z,11.25
2023-04-28T03:29:07.148Z,11.48
2023-04-28T03:31:34.432Z,11.50
2023-04-28T03:34:01.442Z,10.90
2023-04-28T03:36:29.113Z,11.55
2023-04-28T03:38:56.158Z,11.00
2023-04-28T03:41:23.137Z,11.93
2023-04-28T03:43:50.972Z,11.77
2023-04-28T03:46:18.039Z,11.55
2023-04-28T03:48:46.485Z,10.50
2023-04-28T03:51:13.538Z,10.50
2023-04-28T03:53:40.461Z,9.90
2023-04-28T03:56:07.715Z,10.48
2023-04-28T03:58:35.177Z,10.77
2023-04-28T04:01:02.249Z,9.55
2023-04-28T04:03:31.376Z,10.27
2023-04-28T04:05:58.932Z,9.57
2023-04-28T04:08:25.958Z,9.27
2023-04-28T04:10:54.981Z,9.95
2023-04-28T04:13:22.875Z,10.13
2023-04-28T04:15:52.166Z,9.45
2023-04-28T04:18:19.319Z,8.93
2023-04-28T04:20:46.270Z,9.25
2023-04-28T04:23:13.290Z,8.90
2023-04-28T04:25:40.317Z,9.05
2023-04-28T04:28:07.310Z,8.63
2023-04-28T04:30:34.526Z,7.88
2023-04-28T04:33:01.905Z,8.18
2023-04-28T04:35:29.055Z,8.20
2023-04-28T04:37:56.076Z,8.38
2023-04-28T04:40:23.396Z,8.57
2023-04-28T04:42:50.590Z,8.43
2023-04-28T04:45:18.013Z,8.20
2023-04-28T04:47:45.241Z,7.72
2023-04-28T04:50:12.531Z,7.00
2023-04-28T04:52:39.662Z,6.95
2023-04-28T04:55:07.432Z,8.27
2023-04-28T04:57:34.396Z,7.13
2023-04-28T05:00:01.375Z,6.20
2023-04-28T05:02:28.394Z,6.63
2023-04-28T05:05:04.808Z,6.38
2023-04-28T05:07:39.819Z,5.70
2023-04-28T05:10:09.812Z,6.10
2023-04-28T05:12:36.792Z,6.07
2023-04-28T05:15:04.424Z,5.45
2023-04-28T05:17:34.302Z,5.18
2023-04-28T05:20:01.222Z,5.35
2023-04-28T05:22:28.515Z,5.22
2023-04-28T05:24:55.834Z,5.57
2023-04-28T05:27:23.347Z,5.38
2023-04-28T05:29:50.272Z,5.50
2023-04-28T05:32:17.369Z,4.85
2023-04-28T05:34:44.359Z,5.60
2023-04-28T05:37:11.804Z,5.10
2023-04-28T05:39:38.958Z,5.60
2023-04-28T05:42:06.018Z,5.18
2023-04-28T05:44:33.144Z,5.68
2023-04-28T05:47:00.360Z,5.80
2023-04-28T05:49:27.381Z,4.95
2023-04-28T05:51:54.296Z,5.10
2023-04-28T05:54:21.172Z,5.13
2023-04-28T05:56:50.838Z,5.70
2023-04-28T05:59:18.671Z,5.50
2023-04-28T06:01:46.040Z,4.95
2023-04-28T06:04:13.425Z,4.75
2023-04-28T06:06:40.858Z,4.80
2023-04-28T06:09:08.037Z,5.45
2023-04-28T06:11:35.140Z,4.78
2023-04-28T06:14:06.702Z,5.15
2023-04-28T06:16:33.845Z,4.90
2023-04-28T06:19:01.310Z,4.28
2023-04-28T06:21:29.482Z,5.20
2023-04-28T06:23:56.470Z,5.60
2023-04-28T06:26:27.225Z,5.13
2023-04-28T06:28:54.685Z,4.72
2023-04-28T06:31:21.742Z,4.38
2023-04-28T06:33:48.664Z,4.60
2023-04-28T06:36:18.200Z,4.88
2023-04-28T06:38:46.056Z,4.35
2023-04-28T06:41:13.132Z,4.53
2023-04-28T06:43:40.104Z,4.43
2023-04-28T06:46:11.055Z,4.03
2023-04-28T06:48:38.562Z,4.10
2023-04-28T06:51:05.875Z,4.55
2023-04-28T06:53:32.925Z,5.88
2023-04-28T06:56:00.034Z,6.32
2023-04-28T06:58:27.109Z,4.10
2023-04-28T07:00:56.952Z,5.10
2023-04-28T07:03:27.783Z,3.67
2023-04-28T07:05:57.424Z,4.00
2023-04-28T07:08:24.569Z,4.78
2023-04-28T07:10:51.637Z,5.70
2023-04-28T07:13:21.501Z,4.22
2023-04-28T07:15:48.546Z,4.90
2023-04-28T07:18:15.766Z,3.97
2023-04-28T07:20:42.748Z,4.22
2023-04-28T07:23:12.725Z,4.65
2023-04-28T07:25:41.146Z,4.07
2023-04-28T07:28:08.523Z,3.75
2023-04-28T07:30:38.578Z,3.92
2023-04-28T07:33:05.619Z,3.97
2023-04-28T07:35:33.778Z,4.00
2023-04-28T07:38:00.856Z,4.25
2023-04-28T07:40:27.834Z,4.00
2023-04-28T07:42:54.852Z,4.03
2023-04-28T07:45:21.777Z,3.90
2023-04-28T07:47:48.929Z,3.60
2023-04-28T07:50:16.325Z,3.97
2023-04-28T07:52:43.856Z,3.90
2023-04-28T07:55:15.551Z,4.43
2023-04-28T07:57:42.721Z,4.38
2023-04-28T08:00:10.053Z,4.70
2023-04-28T08:02:37.212Z,4.60
2023-04-28T08:05:04.550Z,3.83
2023-04-28T08:07:32.382Z,3.83
2023-04-28T08:09:59.401Z,4.47
2023-04-28T08:12:28.872Z,4.40
2023-04-28T08:14:56.663Z,4.25
2023-04-28T08:17:26.406Z,4.30
2023-04-28T08:19:53.366Z,5.88
2023-04-28T08:22:20.304Z,10.48
2023-04-28T08:24:47.300Z,10.98
2023-04-28T08:27:17.400Z,5.50
2023-04-28T08:29:44.535Z,4.50
2023-04-28T08:32:13.833Z,4.50
2023-04-28T08:34:40.778Z,5.00
2023-04-28T08:37:07.791Z,5.35
2023-04-28T08:39:35.555Z,5.13
2023-04-28T08:42:05.699Z,5.28
2023-04-28T08:44:40.090Z,5.50
2023-04-28T08:47:13.934Z,5.45
2023-04-28T08:49:44.498Z,5.10
2023-04-28T08:52:17.685Z,5.20
2023-04-28T08:54:46.442Z,5.35
2023-04-28T08:57:13.912Z,4.90
2023-04-28T08:59:44.156Z,5.40
2023-04-28T09:02:12.140Z,5.95
2023-04-28T09:04:41.925Z,5.55
2023-04-28T09:07:13.230Z,5.43
2023-04-28T09:09:44.842Z,5.65
2023-04-28T09:12:11.813Z,5.57
2023-04-28T09:14:41.955Z,6.10
2023-04-28T09:17:14.464Z,5.60
2023-04-28T09:19:43.588Z,5.97
2023-04-28T09:22:24.107Z,6.20
2023-04-28T09:24:53.593Z,6.00
2023-04-28T09:27:28.210Z,5.38
2023-04-28T09:29:57.804Z,6.20
2023-04-28T09:32:27.984Z,5.50
2023-04-28T09:34:58.255Z,5.80
2023-04-28T09:37:32.199Z,6.75
2023-04-28T09:40:09.122Z,5.85
2023-04-28T09:42:37.532Z,5.68
2023-04-28T09:45:06.966Z,5.65
2023-04-28T09:47:36.385Z,5.88
2023-04-28T09:50:12.552Z,5.47
2023-04-28T09:52:59.423Z,6.03
2023-04-28T09:55:28.448Z,5.80
2023-04-28T09:57:55.845Z,6.18
2023-04-28T10:00:23.629Z,5.93
2023-04-28T10:02:52.044Z,6.07
2023-04-28T10:05:20.374Z,5.93
2023-04-28T10:07:47.474Z,6.75
2023-04-28T10:10:15.132Z,5.93
2023-04-28T10:12:46.103Z,6.18
2023-04-28T10:15:16.691Z,6.07
2023-04-28T10:17:44.162Z,6.07
2023-04-28T10:20:11.784Z,6.28
2023-04-28T10:23:03.508Z,6.13
2023-04-28T10:25:34.388Z,5.75
2023-04-28T10:28:05.057Z,6.70
2023-04-28T10:30:32.016Z,6.78
2023-04-28T10:33:14.739Z,6.63
2023-04-28T10:35:48.610Z,6.68
2023-04-28T10:40:49.263Z,6.13
2023-04-28T10:43:28.880Z,6.68
2023-04-28T10:46:02.471Z,6.28
2023-04-28T10:48:29.702Z,6.90
2023-04-28T10:51:05.680Z,6.93
2023-04-28T10:53:52.877Z,6.65
2023-04-28T10:56:25.826Z,6.82
2023-04-28T10:58:57.430Z,6.70
2023-04-28T11:01:29.884Z,6.10
2023-04-28T11:04:01.128Z,7.13
2023-04-28T11:06:42.757Z,6.57
2023-04-28T11:09:15.831Z,6.82
2023-04-28T11:12:00.838Z,6.95
2023-04-28T11:14:33.959Z,7.50
2023-04-28T11:17:06.043Z,6.82
2023-04-28T11:19:46.718Z,6.88
2023-04-28T11:22:18.870Z,7.43
2023-04-28T11:25:04.095Z,6.95
2023-04-28T11:27:34.725Z,7.30
2023-04-28T11:30:02.401Z,7.03
2023-04-28T11:32:36.859Z,7.35
2023-04-28T11:35:09.976Z,7.95
2023-04-28T11:37:37.051Z,7.45
2023-04-28T11:40:13.975Z,7.88
2023-04-28T11:42:50.071Z,7.60
2023-04-28T11:45:17.334Z,7.40
2023-04-28T11:47:47.258Z,6.95
2023-04-28T11:50:15.900Z,7.30
2023-04-28T11:53:09.149Z,7.30
2023-04-28T11:55:36.985Z,7.30
2023-04-28T11:58:25.461Z,6.75
2023-04-28T12:01:12.666Z,7.70
2023-04-28T12:03:46.650Z,7.47
2023-04-28T12:06:19.862Z,6.90
2023-04-28T12:08:46.961Z,6.68
2023-04-28T12:11:16.226Z,7.60
2023-04-28T12:14:02.695Z,7.25
2023-04-28T12:16:43.629Z,6.88
2023-04-28T12:19:11.909Z,6.43
2023-04-28T12:21:40.223Z,7.13
2023-04-28T12:24:27.473Z,7.20
2023-04-28T12:26:54.704Z,7.80
2023-04-28T12:29:41.559Z,7.32
2023-04-28T12:32:13.493Z,7.30
2023-04-28T12:34:42.401Z,7.15
2023-04-28T12:37:09.782Z,9.55
2023-04-28T12:39:39.769Z,11.88
2023-04-28T12:42:07.428Z,7.80
2023-04-28T12:44:38.098Z,8.48
2023-04-28T12:47:09.650Z,8.77
2023-04-28T12:49:39.382Z,8.00
2023-04-28T12:52:07.127Z,7.65
2023-04-28T12:54:37.214Z,7.03
2023-04-28T12:57:05.695Z,7.05
2023-04-28T12:59:32.880Z,7.55
2023-04-28T13:01:59.923Z,6.60
2023-04-28T13:04:27.540Z,7.05
2023-04-28T13:06:58.532Z,7.60
2023-04-28T13:09:26.418Z,7.10
2023-04-28T13:11:56.197Z,7.13
2023-04-28T13:14:24.293Z,6.30
2023-04-28T13:16:54.830Z,6.75
2023-04-28T13:19:24.978Z,6.35
2023-04-28T13:21:52.503Z,6.40
2023-04-28T13:24:20.420Z,7.20
2023-04-28T13:26:47.531Z,8.43
2023-04-28T13:29:18.333Z,7.85
2023-04-28T13:31:45.381Z,6.60
2023-04-28T13:34:16.463Z,5.95
2023-04-28T13:36:45.226Z,5.78
2023-04-28T13:39:14.709Z,5.97
2023-04-28T13:41:42.836Z,5.55
2023-04-28T13:44:09.860Z,5.57
2023-04-28T13:46:36.903Z,5.57
2023-04-28T13:49:08.004Z,5.78
2023-04-28T13:51:35.436Z,5.20
2023-04-28T13:54:08.422Z,5.60
2023-04-28T13:56:36.758Z,5.47
2023-04-28T13:59:04.100Z,5.90
2023-04-28T14:01:33.650Z,6.93
2023-04-28T14:04:01.295Z,6.65
2023-04-28T14:06:28.977Z,7.20
2023-04-28T14:08:56.098Z,6.97
2023-04-28T14:11:23.186Z,7.05
2023-04-28T14:13:50.163Z,6.15
2023-04-28T14:16:17.289Z,6.90
2023-04-28T14:18:46.991Z,7.82
2023-04-28T14:21:13.931Z,9.30
2023-04-28T14:23:43.366Z,7.85
2023-04-28T14:26:10.398Z,7.75
2023-04-28T14:28:38.008Z,7.00
2023-04-28T14:31:07.493Z,7.82
2023-04-28T14:33:36.975Z,7.00
2023-04-28T14:36:04.205Z,7.25
2023-04-28T14:38:31.360Z,7.57
2023-04-28T14:40:58.549Z,6.25
2023-04-28T14:43:28.732Z,6.47
2023-04-28T14:45:58.319Z,6.60
2023-04-28T14:48:25.339Z,7.32
2023-04-28T14:50:53.676Z,7.10
2023-04-28T14:53:20.766Z,7.50
2023-04-28T14:55:47.720Z,7.10
2023-04-28T14:58:15.426Z,6.32
2023-04-28T15:00:45.264Z,6.40
2023-04-28T15:03:12.608Z,7.70
2023-04-28T15:05:39.642Z,6.70
2023-04-28T15:08:07.128Z,6.82
2023-04-28T15:10:39.186Z,6.88
2023-04-28T15:13:09.419Z,7.28
2023-04-28T15:15:36.793Z,6.53
2023-04-28T15:18:04.520Z,6.18
2023-04-28T15:20:37.387Z,6.85
2023-04-28T15:23:04.622Z,6.17
2023-04-28T15:25:31.628Z,6.00
2023-04-28T15:27:58.684Z,6.03
2023-04-28T15:30:25.835Z,6.43
2023-04-28T15:32:53.192Z,6.00
2023-04-28T15:35:20.440Z,6.32
2023-04-28T15:37:47.873Z,6.30
2023-04-28T15:40:16.951Z,7.65
2023-04-28T15:42:49.427Z,8.13
2023-04-28T15:45:18.574Z,10.55
2023-04-28T15:47:49.493Z,8.02
2023-04-28T15:50:19.198Z,7.55
2023-04-28T15:52:46.903Z,8.52
2023-04-28T15:55:15.379Z,8.95
2023-04-28T15:57:46.721Z,8.73
2023-04-28T16:00:15.853Z,8.57
2023-04-28T16:02:44.130Z,8.90
2023-04-28T16:05:14.717Z,10.02
2023-04-28T16:07:45.885Z,9.70
2023-04-28T16:10:15.282Z,10.02
2023-04-28T16:12:43.250Z,11.15
2023-04-28T16:15:13.024Z,9.88
2023-04-28T16:17:41.320Z,8.77
2023-04-28T16:20:10.017Z,9.63
2023-04-28T16:22:41.107Z,9.15
2023-04-28T16:25:16.502Z,8.80
2023-04-28T16:27:43.724Z,9.40
2023-04-28T16:30:11.265Z,9.20
2023-04-28T16:32:38.796Z,9.30
2023-04-28T16:35:06.655Z,9.60
2023-04-28T16:37:33.858Z,9.77
2023-04-28T16:40:01.891Z,9.27
2023-04-28T16:42:29.036Z,9.85
2023-04-28T16:44:56.174Z,9.02
2023-04-28T16:47:23.166Z,10.30
2023-04-28T16:49:50.241Z,10.32
2023-04-28T16:52:17.398Z,10.32
2023-04-28T16:54:47.057Z,9.38
2023-04-28T16:57:14.062Z,8.90
2023-04-28T16:59:44.100Z,8.70
2023-04-28T17:02:11.064Z,9.85
2023-04-28T17:04:38.652Z,10.10
2023-04-28T17:07:06.120Z,10.10
2023-04-28T17:09:33.545Z,9.30
2023-04-28T17:12:01.328Z,9.85
2023-04-28T17:14:28.396Z,10.00
2023-04-28T17:16:56.098Z,9.57
2023-04-28T17:19:23.350Z,10.45
2023-04-28T17:21:52.974Z,10.45
2023-04-28T17:24:19.980Z,10.10
2023-04-28T17:26:47.265Z,10.15
2023-04-28T17:29:14.346Z,10.23
2023-04-28T17:31:42.830Z,11.25
2023-04-28T17:34:09.891Z,10.50
2023-04-28T17:36:36.793Z,10.10
2023-04-28T17:39:07.006Z,10.50
2023-04-28T17:41:34.135Z,10.15
2023-04-28T17:44:01.718Z,10.48
2023-04-28T17:46:32.722Z,10.20
2023-04-28T17:49:00.520Z,10.23
2023-04-28T17:51:30.525Z,10.60
2023-04-28T17:53:57.430Z,10.30
2023-04-28T17:56:25.284Z,10.15
2023-04-28T17:58:55.404Z,9.55
2023-04-28T18:01:24.826Z,10.68
2023-04-28T18:03:52.119Z,9.82
2023-04-28T18:06:22.632Z,10.25
2023-04-28T18:08:51.561Z,9.48
2023-04-28T18:11:18.472Z,10.32
2023-04-28T18:13:45.414Z,10.43
2023-04-28T18:16:15.181Z,11.65
2023-04-28T18:18:45.330Z,11.90
2023-04-28T18:21:15.205Z,11.95
2023-04-28T18:23:42.645Z,12.00
2023-04-28T18:26:09.574Z,11.73
2023-04-28T18:28:36.668Z,12.10
2023-04-28T18:31:07.286Z,11.88
2023-04-28T18:33:34.202Z,11.82
2023-04-28T18:36:01.507Z,12.43
2023-04-28T18:38:28.773Z,12.90
2023-04-28T18:40:58.308Z,12.57
2023-04-28T18:43:26.044Z,12.82
2023-04-28T18:45:53.042Z,13.10
2023-04-28T18:48:21.764Z,14.07
2023-04-28T18:50:48.786Z,14.05
2023-04-28T18:53:15.874Z,13.57
2023-04-28T18:55:42.860Z,13.77
2023-04-28T18:58:09.834Z,14.82
2023-04-28T19:00:37.326Z,14.93
2023-04-28T19:03:04.829Z,14.93
2023-04-28T19:05:32.444Z,14.80
2023-04-28T19:07:59.438Z,14.85
2023-04-28T19:10:26.436Z,15.13
2023-04-28T19:12:53.405Z,15.05
2023-04-28T19:15:23.018Z,14.80
2023-04-28T19:17:50.408Z,15.40
2023-04-28T19:20:18.108Z,16.23
2023-04-28T19:22:46.695Z,16.02
2023-04-28T19:25:13.718Z,15.88
2023-04-28T19:27:46.010Z,17.63
2023-04-28T19:30:14.938Z,16.95
2023-04-28T19:32:42.605Z,16.65
2023-04-28T19:35:10.045Z,15.98
2023-04-28T19:37:37.078Z,16.42
2023-04-28T19:40:07.582Z,16.30
2023-04-28T19:42:37.776Z,17.83
2023-04-28T19:45:09.585Z,17.27
2023-04-28T19:47:39.652Z,18.20
2023-04-28T19:50:08.664Z,17.48
2023-04-28T19:52:35.733Z,17.05
2023-04-28T19:55:04.289Z,17.67
2023-04-28T19:57:34.697Z,16.60
2023-04-28T20:00:04.689Z,16.98
2023-04-28T20:02:33.330Z,17.65
2023-04-28T20:05:01.129Z,18.35
2023-04-28T20:07:28.121Z,18.20
2023-04-28T20:09:56.425Z,18.67
2023-04-28T20:12:23.650Z,18.92
2023-04-28T20:14:51.417Z,18.38
2023-04-28T20:17:18.657Z,19.73
2023-04-28T20:19:45.641Z,19.95
2023-04-28T20:22:12.568Z,19.52
2023-04-28T20:24:40.359Z,18.55
2023-04-28T20:27:07.398Z,18.48
2023-04-28T20:29:37.585Z,18.33
2023-04-28T20:32:05.216Z,20.95
2023-04-28T20:34:32.435Z,19.58
2023-04-28T20:36:59.892Z,19.85
2023-04-28T20:39:26.841Z,18.30
2023-04-28T20:41:53.843Z,18.27
2023-04-28T20:44:20.827Z,18.02
2023-04-28T20:46:47.878Z,16.83
2023-04-28T20:49:15.361Z,16.10
2023-04-28T20:51:45.289Z,16.45
2023-04-28T20:54:13.019Z,15.85
2023-04-28T20:56:42.130Z,15.73
2023-04-28T20:59:09.216Z,15.30
2023-04-28T21:01:36.207Z,15.75
2023-04-28T21:04:03.359Z,15.52
2023-04-28T21:06:30.712Z,16.17
2023-04-28T21:08:57.666Z,17.15
2023-04-28T21:11:24.778Z,15.93
2023-04-28T21:13:51.702Z,15.32
2023-04-28T21:16:21.678Z,16.35
2023-04-28T21:18:49.817Z,16.58
2023-04-28T21:21:17.219Z,17.77
2023-04-28T21:23:44.502Z,18.73
2023-04-28T21:26:11.600Z,16.63
2023-04-28T21:28:41.874Z,17.33
2023-04-28T21:31:08.915Z,16.63
2023-04-28T21:33:36.261Z,17.63
2023-04-28T21:36:10.359Z,16.55
2023-04-28T21:38:38.109Z,15.93
2023-04-28T21:41:07.633Z,16.52
2023-04-28T21:43:34.892Z,17.38
2023-04-28T21:46:08.088Z,17.55
2023-04-28T21:48:35.708Z,17.75
2023-04-28T21:51:02.856Z,17.23
2023-04-28T21:53:29.868Z,16.45
2023-04-28T21:55:56.976Z,17.13
2023-04-28T21:58:24.107Z,18.58
2023-04-28T22:00:51.435Z,18.50
2023-04-28T22:03:19.000Z,17.33
2023-04-28T22:05:46.354Z,17.35
2023-04-28T22:08:14.110Z,17.45
2023-04-28T22:10:41.483Z,17.40
2023-04-28T22:13:09.272Z,17.17
2023-04-28T22:15:36.266Z,16.80
2023-04-28T22:18:03.460Z,16.25
2023-04-28T22:20:30.435Z,16.48
2023-04-28T22:22:57.892Z,16.00
2023-04-28T22:25:25.154Z,15.93
2023-04-28T22:27:52.317Z,16.30
2023-04-28T22:30:19.695Z,16.08
2023-04-28T22:32:47.683Z,17.52
2023-04-28T22:35:16.841Z,17.50
2023-04-28T22:37:44.433Z,18.05
2023-04-28T22:40:11.922Z,18.77
2023-04-28T22:42:41.444Z,19.10
2023-04-28T22:45:10.490Z,19.75
2023-04-28T22:47:41.153Z,22.05
2023-04-28T22:50:09.623Z,21.27
2023-04-28T22:52:37.039Z,21.63
2023-04-28T22:55:04.869Z,23.52
2023-04-28T22:57:31.877Z,22.77
2023-04-28T22:59:58.866Z,23.40
2023-04-28T23:02:25.950Z,24.95
2023-04-28T23:04:53.306Z,23.83
2023-04-28T23:07:20.836Z,25.73
2023-04-28T23:09:47.916Z,26.00
2023-04-28T23:12:15.365Z,25.88
2023-04-28T23:14:42.331Z,26.13
2023-04-28T23:17:09.287Z,27.88
2023-04-28T23:19:39.387Z,26.88
2023-04-28T23:22:07.974Z,29.27
2023-04-28T23:24:37.085Z,28.05
2023-04-28T23:27:04.843Z,28.50
2023-04-28T23:29:32.496Z,27.45
2023-04-28T23:31:59.806Z,29.83
2023-04-28T23:34:27.116Z,29.42
2023-04-28T23:36:54.407Z,29.23
2023-04-28T23:39:21.374Z,31.17
2023-04-28T23:41:48.347Z,30.38
2023-04-28T23:44:15.378Z,32.78
2023-04-28T23:46:42.347Z,31.63
2023-04-28T23:49:09.543Z,29.40
2023-04-28T23:51:36.559Z,29.23
2023-04-28T23:54:03.876Z,29.23
2023-04-28T23:56:31.749Z,27.98
2023-04-28T23:58:58.727Z,30.17
